sensor_id;sensor_type;location;lat;lon;timestamp;temperature;humidity
15916;DHT22;8057;47.830;-3.870;2023-12-29T00:03:17;12.90;99.90
15916;DHT22;8057;47.830;-3.870;2023-12-29T00:07:26;12.90;99.90
15916;DHT22;8057;47.830;-3.870;2023-12-29T00:11:36;12.90;99.90
15916;DHT22;8057;47.830;-3.870;2023-12-29T00:15:45;13.00;99.90
15916;DHT22;8057;47.830;-3.870;2023-12-29T00:19:58;12.90;99.90
15916;DHT22;8057;47.830;-3.870;2023-12-29T00:24:07;12.90;99.90
15916;DHT22;8057;47.830;-3.870;2023-12-29T00:28:17;12.90;99.90
15916;DHT22;8057;47.830;-3.870;2023-12-29T00:32:27;12.90;99.90
15916;DHT22;8057;47.830;-3.870;2023-12-29T00:36:36;12.80;99.90
15916;DHT22;8057;47.830;-3.870;2023-12-29T00:40:45;12.90;99.90
15916;DHT22;8057;47.830;-3.870;2023-12-29T00:44:55;12.90;99.90
15916;DHT22;8057;47.830;-3.870;2023-12-29T00:49:04;12.80;99.90
15916;DHT22;8057;47.830;-3.870;2023-12-29T00:53:14;12.90;99.90
15916;DHT22;8057;47.830;-3.870;2023-12-29T00:57:23;12.90;99.90
15916;DHT22;8057;47.830;-3.870;2023-12-29T01:01:35;13.00;99.90
15916;DHT22;8057;47.830;-3.870;2023-12-29T01:05:44;13.00;99.90
15916;DHT22;8057;47.830;-3.870;2023-12-29T01:09:53;13.00;99.90
15916;DHT22;8057;47.830;-3.870;2023-12-29T01:14:02;13.00;99.90
15916;DHT22;8057;47.830;-3.870;2023-12-29T01:18:14;13.00;99.90
15916;DHT22;8057;47.830;-3.870;2023-12-29T01:22:24;13.00;99.90
15916;DHT22;8057;47.830;-3.870;2023-12-29T01:26:37;13.00;99.90
15916;DHT22;8057;47.830;-3.870;2023-12-29T01:30:46;13.00;99.90
15916;DHT22;8057;47.830;-3.870;2023-12-29T01:34:57;13.00;99.90
15916;DHT22;8057;47.830;-3.870;2023-12-29T01:39:06;13.00;99.90
15916;DHT22;8057;47.830;-3.870;2023-12-29T01:43:16;13.00;99.90
15916;DHT22;8057;47.830;-3.870;2023-12-29T01:47:25;13.00;99.90
15916;DHT22;8057;47.830;-3.870;2023-12-29T01:51:36;13.00;99.90
15916;DHT22;8057;47.830;-3.870;2023-12-29T01:55:45;13.00;99.90
15916;DHT22;8057;47.830;-3.870;2023-12-29T01:59:56;13.00;99.90
15916;DHT22;8057;47.830;-3.870;2023-12-29T02:04:05;12.90;99.90
15916;DHT22;8057;47.830;-3.870;2023-12-29T02:08:17;12.90;99.90
15916;DHT22;8057;47.830;-3.870;2023-12-29T02:12:26;12.90;99.90
15916;DHT22;8057;47.830;-3.870;2023-12-29T02:16:40;12.90;99.90
15916;DHT22;8057;47.830;-3.870;2023-12-29T02:20:52;12.90;99.90
15916;DHT22;8057;47.830;-3.870;2023-12-29T02:25:03;13.00;99.90
15916;DHT22;8057;47.830;-3.870;2023-12-29T02:29:15;13.00;99.90
15916;DHT22;8057;47.830;-3.870;2023-12-29T02:33:27;13.00;99.90
15916;DHT22;8057;47.830;-3.870;2023-12-29T02:37:37;13.10;99.90
15916;DHT22;8057;47.830;-3.870;2023-12-29T02:41:49;13.10;99.90
15916;DHT22;8057;47.830;-3.870;2023-12-29T02:45:58;13.00;99.90
15916;DHT22;8057;47.830;-3.870;2023-12-29T02:50:08;13.00;99.90
15916;DHT22;8057;47.830;-3.870;2023-12-29T02:54:17;12.90;99.90
15916;DHT22;8057;47.830;-3.870;2023-12-29T02:58:28;12.90;99.90
15916;DHT22;8057;47.830;-3.870;2023-12-29T03:02:37;13.00;99.90
15916;DHT22;8057;47.830;-3.870;2023-12-29T03:06:46;13.00;99.90
15916;DHT22;8057;47.830;-3.870;2023-12-29T03:10:55;13.10;99.90
15916;DHT22;8057;47.830;-3.870;2023-12-29T03:15:06;13.10;99.90
15916;DHT22;8057;47.830;-3.870;2023-12-29T03:19:16;13.10;99.90
15916;DHT22;8057;47.830;-3.870;2023-12-29T03:23:25;13.10;99.90
15916;DHT22;8057;47.830;-3.870;2023-12-29T03:27:34;13.10;99.90
15916;DHT22;8057;47.830;-3.870;2023-12-29T03:31:45;13.00;99.90
15916;DHT22;8057;47.830;-3.870;2023-12-29T03:35:54;13.10;99.90
15916;DHT22;8057;47.830;-3.870;2023-12-29T03:40:04;13.10;99.90
15916;DHT22;8057;47.830;-3.870;2023-12-29T03:44:13;13.00;99.90
15916;DHT22;8057;47.830;-3.870;2023-12-29T03:48:24;13.10;99.90
15916;DHT22;8057;47.830;-3.870;2023-12-29T03:52:33;13.00;99.90
15916;DHT22;8057;47.830;-3.870;2023-12-29T03:56:42;12.90;99.90
15916;DHT22;8057;47.830;-3.870;2023-12-29T04:00:51;12.90;99.90
15916;DHT22;8057;47.830;-3.870;2023-12-29T04:05:02;12.90;99.90
15916;DHT22;8057;47.830;-3.870;2023-12-29T04:09:13;13.00;99.90
15916;DHT22;8057;47.830;-3.870;2023-12-29T04:13:22;13.00;99.90
15916;DHT22;8057;47.830;-3.870;2023-12-29T04:17:31;13.00;99.90
15916;DHT22;8057;47.830;-3.870;2023-12-29T04:21:42;13.00;99.90
15916;DHT22;8057;47.830;-3.870;2023-12-29T04:25:51;13.00;99.90
15916;DHT22;8057;47.830;-3.870;2023-12-29T04:30:00;13.00;99.90
15916;DHT22;8057;47.830;-3.870;2023-12-29T04:34:10;13.00;99.90
15916;DHT22;8057;47.830;-3.870;2023-12-29T04:38:21;13.00;99.90
15916;DHT22;8057;47.830;-3.870;2023-12-29T04:42:30;13.10;99.90
15916;DHT22;8057;47.830;-3.870;2023-12-29T04:46:39;13.10;99.90
15916;DHT22;8057;47.830;-3.870;2023-12-29T04:50:49;13.00;99.90
15916;DHT22;8057;47.830;-3.870;2023-12-29T04:54:59;13.10;99.90
15916;DHT22;8057;47.830;-3.870;2023-12-29T04:59:08;13.00;99.90
15916;DHT22;8057;47.830;-3.870;2023-12-29T05:03:18;13.10;99.90
15916;DHT22;8057;47.830;-3.870;2023-12-29T05:07:27;13.00;99.90
15916;DHT22;8057;47.830;-3.870;2023-12-29T05:11:38;13.00;99.90
15916;DHT22;8057;47.830;-3.870;2023-12-29T05:15:48;13.00;99.90
15916;DHT22;8057;47.830;-3.870;2023-12-29T05:19:57;13.00;99.90
15916;DHT22;8057;47.830;-3.870;2023-12-29T05:24:06;13.00;99.90
15916;DHT22;8057;47.830;-3.870;2023-12-29T05:28:17;13.00;99.90
15916;DHT22;8057;47.830;-3.870;2023-12-29T05:32:26;13.10;99.90
15916;DHT22;8057;47.830;-3.870;2023-12-29T05:36:37;13.10;99.90
15916;DHT22;8057;47.830;-3.870;2023-12-29T05:40:46;13.10;99.90
15916;DHT22;8057;47.830;-3.870;2023-12-29T05:44:57;13.10;99.90
15916;DHT22;8057;47.830;-3.870;2023-12-29T05:49:07;13.10;99.90
15916;DHT22;8057;47.830;-3.870;2023-12-29T05:53:16;13.10;99.90
15916;DHT22;8057;47.830;-3.870;2023-12-29T05:57:25;13.10;99.90
15916;DHT22;8057;47.830;-3.870;2023-12-29T06:01:36;13.20;99.90
15916;DHT22;8057;47.830;-3.870;2023-12-29T06:05:45;13.20;99.90
15916;DHT22;8057;47.830;-3.870;2023-12-29T06:09:54;13.10;99.90
15916;DHT22;8057;47.830;-3.870;2023-12-29T06:14:03;13.00;99.90
15916;DHT22;8057;47.830;-3.870;2023-12-29T06:18:14;13.00;99.90
15916;DHT22;8057;47.830;-3.870;2023-12-29T06:22:23;13.00;99.90
15916;DHT22;8057;47.830;-3.870;2023-12-29T06:26:32;13.00;99.90
15916;DHT22;8057;47.830;-3.870;2023-12-29T06:30:42;13.00;99.90
15916;DHT22;8057;47.830;-3.870;2023-12-29T06:34:52;12.90;99.90
15916;DHT22;8057;47.830;-3.870;2023-12-29T06:39:02;12.90;99.90
15916;DHT22;8057;47.830;-3.870;2023-12-29T06:43:11;12.80;99.90
15916;DHT22;8057;47.830;-3.870;2023-12-29T06:47:20;12.80;99.90
15916;DHT22;8057;47.830;-3.870;2023-12-29T06:51:31;12.90;99.90
15916;DHT22;8057;47.830;-3.870;2023-12-29T06:55:40;12.90;99.90
15916;DHT22;8057;47.830;-3.870;2023-12-29T06:59:49;13.00;99.90
15916;DHT22;8057;47.830;-3.870;2023-12-29T07:03:58;13.00;99.90
15916;DHT22;8057;47.830;-3.870;2023-12-29T07:08:12;13.00;99.90
15916;DHT22;8057;47.830;-3.870;2023-12-29T07:12:21;13.00;99.90
15916;DHT22;8057;47.830;-3.870;2023-12-29T07:16:30;13.00;99.90
15916;DHT22;8057;47.830;-3.870;2023-12-29T07:20:39;13.00;99.90
15916;DHT22;8057;47.830;-3.870;2023-12-29T07:24:50;13.00;99.90
15916;DHT22;8057;47.830;-3.870;2023-12-29T07:28:59;13.10;99.90
15916;DHT22;8057;47.830;-3.870;2023-12-29T07:33:08;13.10;99.90
15916;DHT22;8057;47.830;-3.870;2023-12-29T07:37:17;13.10;99.90
15916;DHT22;8057;47.830;-3.870;2023-12-29T07:41:28;13.10;99.90
15916;DHT22;8057;47.830;-3.870;2023-12-29T07:45:37;13.10;99.90
15916;DHT22;8057;47.830;-3.870;2023-12-29T07:49:46;13.20;99.90
15916;DHT22;8057;47.830;-3.870;2023-12-29T07:53:55;13.20;99.90
15916;DHT22;8057;47.830;-3.870;2023-12-29T07:58:06;13.20;99.90
15916;DHT22;8057;47.830;-3.870;2023-12-29T08:02:18;13.20;99.90
15916;DHT22;8057;47.830;-3.870;2023-12-29T08:06:27;13.20;99.90
15916;DHT22;8057;47.830;-3.870;2023-12-29T08:10:36;13.20;99.90
15916;DHT22;8057;47.830;-3.870;2023-12-29T08:14:46;13.30;99.90
15916;DHT22;8057;47.830;-3.870;2023-12-29T08:18:56;13.30;99.90
15916;DHT22;8057;47.830;-3.870;2023-12-29T08:23:05;13.30;99.90
15916;DHT22;8057;47.830;-3.870;2023-12-29T08:27:14;13.30;99.90
15916;DHT22;8057;47.830;-3.870;2023-12-29T08:31:25;13.30;99.90
15916;DHT22;8057;47.830;-3.870;2023-12-29T08:35:36;13.30;99.90
15916;DHT22;8057;47.830;-3.870;2023-12-29T08:39:46;13.30;99.90
15916;DHT22;8057;47.830;-3.870;2023-12-29T08:43:56;13.30;99.90
15916;DHT22;8057;47.830;-3.870;2023-12-29T08:48:07;13.30;99.90
15916;DHT22;8057;47.830;-3.870;2023-12-29T08:52:16;13.30;99.90
15916;DHT22;8057;47.830;-3.870;2023-12-29T08:56:25;13.20;99.90
15916;DHT22;8057;47.830;-3.870;2023-12-29T09:00:35;13.20;99.90
15916;DHT22;8057;47.830;-3.870;2023-12-29T09:04:46;13.20;99.90
15916;DHT22;8057;47.830;-3.870;2023-12-29T09:08:55;13.20;99.90
15916;DHT22;8057;47.830;-3.870;2023-12-29T09:13:04;13.20;99.90
15916;DHT22;8057;47.830;-3.870;2023-12-29T09:17:13;13.10;99.90
15916;DHT22;8057;47.830;-3.870;2023-12-29T09:21:24;13.10;99.90
15916;DHT22;8057;47.830;-3.870;2023-12-29T09:25:33;13.20;99.90
15916;DHT22;8057;47.830;-3.870;2023-12-29T09:29:42;13.20;99.90
15916;DHT22;8057;47.830;-3.870;2023-12-29T09:33:52;13.30;99.90
15916;DHT22;8057;47.830;-3.870;2023-12-29T09:38:03;13.40;99.90
15916;DHT22;8057;47.830;-3.870;2023-12-29T09:42:19;13.50;99.90
15916;DHT22;8057;47.830;-3.870;2023-12-29T09:46:31;13.60;99.90
15916;DHT22;8057;47.830;-3.870;2023-12-29T09:50:41;13.80;99.90
15916;DHT22;8057;47.830;-3.870;2023-12-29T09:54:52;13.80;99.90
15916;DHT22;8057;47.830;-3.870;2023-12-29T09:59:03;14.00;99.90
15916;DHT22;8057;47.830;-3.870;2023-12-29T10:03:12;14.00;99.90
15916;DHT22;8057;47.830;-3.870;2023-12-29T10:07:24;14.10;99.90
15916;DHT22;8057;47.830;-3.870;2023-12-29T10:11:35;14.10;99.90
15916;DHT22;8057;47.830;-3.870;2023-12-29T10:15:50;14.00;99.90
15916;DHT22;8057;47.830;-3.870;2023-12-29T10:20:08;14.00;99.90
15916;DHT22;8057;47.830;-3.870;2023-12-29T10:24:21;13.90;99.90
15916;DHT22;8057;47.830;-3.870;2023-12-29T10:28:32;13.80;99.90
15916;DHT22;8057;47.830;-3.870;2023-12-29T10:32:42;13.70;99.90
15916;DHT22;8057;47.830;-3.870;2023-12-29T10:36:51;13.70;99.90
15916;DHT22;8057;47.830;-3.870;2023-12-29T10:41:13;13.70;99.90
15916;DHT22;8057;47.830;-3.870;2023-12-29T10:45:24;13.90;99.90
15916;DHT22;8057;47.830;-3.870;2023-12-29T10:49:33;13.90;99.90
15916;DHT22;8057;47.830;-3.870;2023-12-29T10:53:54;13.80;99.90
15916;DHT22;8057;47.830;-3.870;2023-12-29T10:58:05;14.00;99.90
15916;DHT22;8057;47.830;-3.870;2023-12-29T11:02:16;14.10;99.90
15916;DHT22;8057;47.830;-3.870;2023-12-29T11:06:26;14.00;99.90
15916;DHT22;8057;47.830;-3.870;2023-12-29T11:10:35;13.90;99.90
15916;DHT22;8057;47.830;-3.870;2023-12-29T11:14:44;13.80;99.90
15916;DHT22;8057;47.830;-3.870;2023-12-29T11:18:58;13.80;99.90
15916;DHT22;8057;47.830;-3.870;2023-12-29T11:23:07;13.80;99.90
15916;DHT22;8057;47.830;-3.870;2023-12-29T11:27:18;13.80;99.90
15916;DHT22;8057;47.830;-3.870;2023-12-29T11:31:28;13.90;99.90
15916;DHT22;8057;47.830;-3.870;2023-12-29T11:35:45;13.90;99.90
15916;DHT22;8057;47.830;-3.870;2023-12-29T11:40:06;13.80;99.90
15916;DHT22;8057;47.830;-3.870;2023-12-29T11:44:24;13.80;99.90
15916;DHT22;8057;47.830;-3.870;2023-12-29T11:48:53;13.90;99.90
15916;DHT22;8057;47.830;-3.870;2023-12-29T11:53:04;14.00;99.90
15916;DHT22;8057;47.830;-3.870;2023-12-29T11:57:31;13.90;99.90
15916;DHT22;8057;47.830;-3.870;2023-12-29T12:01:41;13.90;99.90
15916;DHT22;8057;47.830;-3.870;2023-12-29T12:05:52;14.00;99.90
15916;DHT22;8057;47.830;-3.870;2023-12-29T12:10:32;14.10;99.90
15916;DHT22;8057;47.830;-3.870;2023-12-29T12:14:50;14.20;99.90
15916;DHT22;8057;47.830;-3.870;2023-12-29T12:18:59;14.30;99.90
15916;DHT22;8057;47.830;-3.870;2023-12-29T12:23:11;14.30;99.90
15916;DHT22;8057;47.830;-3.870;2023-12-29T12:27:28;14.50;99.90
15916;DHT22;8057;47.830;-3.870;2023-12-29T12:31:37;14.50;99.90
15916;DHT22;8057;47.830;-3.870;2023-12-29T12:36:00;14.40;99.90
15916;DHT22;8057;47.830;-3.870;2023-12-29T12:40:11;14.40;99.90
15916;DHT22;8057;47.830;-3.870;2023-12-29T12:44:21;14.50;99.90
15916;DHT22;8057;47.830;-3.870;2023-12-29T12:48:41;14.60;99.90
15916;DHT22;8057;47.830;-3.870;2023-12-29T12:52:51;14.60;99.90
15916;DHT22;8057;47.830;-3.870;2023-12-29T12:57:00;14.70;99.90
15916;DHT22;8057;47.830;-3.870;2023-12-29T13:01:12;14.70;99.90
15916;DHT22;8057;47.830;-3.870;2023-12-29T13:05:22;14.70;99.90
15916;DHT22;8057;47.830;-3.870;2023-12-29T13:09:31;14.70;99.90
15916;DHT22;8057;47.830;-3.870;2023-12-29T13:13:42;14.60;99.90
15916;DHT22;8057;47.830;-3.870;2023-12-29T13:17:53;14.50;99.90
15916;DHT22;8057;47.830;-3.870;2023-12-29T13:22:06;14.30;99.90
15916;DHT22;8057;47.830;-3.870;2023-12-29T13:26:18;14.30;99.90
15916;DHT22;8057;47.830;-3.870;2023-12-29T13:30:28;14.30;99.90
15916;DHT22;8057;47.830;-3.870;2023-12-29T13:34:48;14.20;99.90
15916;DHT22;8057;47.830;-3.870;2023-12-29T13:39:07;14.10;99.90
15916;DHT22;8057;47.830;-3.870;2023-12-29T13:43:17;14.00;99.90
15916;DHT22;8057;47.830;-3.870;2023-12-29T13:47:27;14.00;99.90
15916;DHT22;8057;47.830;-3.870;2023-12-29T13:51:38;14.00;99.90
15916;DHT22;8057;47.830;-3.870;2023-12-29T13:55:47;14.10;99.90
15916;DHT22;8057;47.830;-3.870;2023-12-29T13:59:57;14.30;99.90
15916;DHT22;8057;47.830;-3.870;2023-12-29T14:04:07;14.50;99.90
15916;DHT22;8057;47.830;-3.870;2023-12-29T14:08:25;14.60;99.90
15916;DHT22;8057;47.830;-3.870;2023-12-29T14:12:35;14.70;99.90
15916;DHT22;8057;47.830;-3.870;2023-12-29T14:16:44;14.80;99.90
15916;DHT22;8057;47.830;-3.870;2023-12-29T14:20:54;14.90;99.90
15916;DHT22;8057;47.830;-3.870;2023-12-29T14:25:06;14.90;99.90
15916;DHT22;8057;47.830;-3.870;2023-12-29T14:29:17;14.80;99.90
15916;DHT22;8057;47.830;-3.870;2023-12-29T14:33:26;14.50;99.90
15916;DHT22;8057;47.830;-3.870;2023-12-29T14:37:35;14.20;99.90
15916;DHT22;8057;47.830;-3.870;2023-12-29T14:41:45;14.20;99.90
15916;DHT22;8057;47.830;-3.870;2023-12-29T14:45:55;14.20;99.90
15916;DHT22;8057;47.830;-3.870;2023-12-29T14:50:06;14.10;99.90
15916;DHT22;8057;47.830;-3.870;2023-12-29T14:54:15;14.00;99.90
15916;DHT22;8057;47.830;-3.870;2023-12-29T14:58:26;13.80;99.90
15916;DHT22;8057;47.830;-3.870;2023-12-29T15:02:35;13.70;99.90
15916;DHT22;8057;47.830;-3.870;2023-12-29T15:06:44;13.70;99.90
15916;DHT22;8057;47.830;-3.870;2023-12-29T15:10:53;13.70;99.90
15916;DHT22;8057;47.830;-3.870;2023-12-29T15:15:05;13.80;99.90
15916;DHT22;8057;47.830;-3.870;2023-12-29T15:19:14;13.90;99.90
15916;DHT22;8057;47.830;-3.870;2023-12-29T15:23:23;13.90;99.90
15916;DHT22;8057;47.830;-3.870;2023-12-29T15:27:32;13.90;99.90
15916;DHT22;8057;47.830;-3.870;2023-12-29T15:31:44;13.70;99.90
15916;DHT22;8057;47.830;-3.870;2023-12-29T15:35:54;13.60;99.90
15916;DHT22;8057;47.830;-3.870;2023-12-29T15:40:05;13.50;99.90
15916;DHT22;8057;47.830;-3.870;2023-12-29T15:44:14;13.40;99.90
15916;DHT22;8057;47.830;-3.870;2023-12-29T15:48:25;13.40;99.90
15916;DHT22;8057;47.830;-3.870;2023-12-29T15:52:34;13.30;99.90
15916;DHT22;8057;47.830;-3.870;2023-12-29T15:56:43;13.30;99.90
15916;DHT22;8057;47.830;-3.870;2023-12-29T16:05:59;13.20;99.90
15916;DHT22;8057;47.830;-3.870;2023-12-29T16:10:11;13.10;99.90
15916;DHT22;8057;47.830;-3.870;2023-12-29T16:14:23;13.20;99.90
15916;DHT22;8057;47.830;-3.870;2023-12-29T16:18:42;13.10;99.90
15916;DHT22;8057;47.830;-3.870;2023-12-29T16:23:04;13.00;99.90
15916;DHT22;8057;47.830;-3.870;2023-12-29T16:27:13;12.90;99.90
15916;DHT22;8057;47.830;-3.870;2023-12-29T16:31:23;12.90;99.90
15916;DHT22;8057;47.830;-3.870;2023-12-29T16:35:33;12.80;99.90
15916;DHT22;8057;47.830;-3.870;2023-12-29T16:39:43;12.80;99.90
15916;DHT22;8057;47.830;-3.870;2023-12-29T16:43:53;12.80;99.90
15916;DHT22;8057;47.830;-3.870;2023-12-29T16:48:02;12.80;99.90
15916;DHT22;8057;47.830;-3.870;2023-12-29T16:52:11;12.70;99.90
15916;DHT22;8057;47.830;-3.870;2023-12-29T16:56:22;12.70;99.90
15916;DHT22;8057;47.830;-3.870;2023-12-29T17:00:31;12.60;99.90
15916;DHT22;8057;47.830;-3.870;2023-12-29T17:04:43;12.60;99.90
15916;DHT22;8057;47.830;-3.870;2023-12-29T17:08:54;12.50;99.90
15916;DHT22;8057;47.830;-3.870;2023-12-29T17:13:05;12.50;99.90
15916;DHT22;8057;47.830;-3.870;2023-12-29T17:17:15;12.50;99.90
15916;DHT22;8057;47.830;-3.870;2023-12-29T17:21:24;12.40;99.90
15916;DHT22;8057;47.830;-3.870;2023-12-29T17:25:33;12.40;99.90
15916;DHT22;8057;47.830;-3.870;2023-12-29T17:29:58;12.40;99.90
15916;DHT22;8057;47.830;-3.870;2023-12-29T17:34:07;12.40;99.90
15916;DHT22;8057;47.830;-3.870;2023-12-29T17:38:19;12.40;99.90
15916;DHT22;8057;47.830;-3.870;2023-12-29T17:47:42;12.60;99.90
15916;DHT22;8057;47.830;-3.870;2023-12-29T17:52:11;12.70;99.90
15916;DHT22;8057;47.830;-3.870;2023-12-29T17:56:21;12.70;99.90
15916;DHT22;8057;47.830;-3.870;2023-12-29T18:00:30;12.70;99.90
15916;DHT22;8057;47.830;-3.870;2023-12-29T18:04:40;12.70;99.90
15916;DHT22;8057;47.830;-3.870;2023-12-29T18:08:50;12.80;99.90
15916;DHT22;8057;47.830;-3.870;2023-12-29T18:13:03;12.80;99.90
15916;DHT22;8057;47.830;-3.870;2023-12-29T18:17:13;12.80;99.90
15916;DHT22;8057;47.830;-3.870;2023-12-29T18:21:23;12.80;99.90
15916;DHT22;8057;47.830;-3.870;2023-12-29T18:25:32;12.90;99.90
15916;DHT22;8057;47.830;-3.870;2023-12-29T18:29:42;12.90;99.90
15916;DHT22;8057;47.830;-3.870;2023-12-29T18:33:51;12.90;99.90
15916;DHT22;8057;47.830;-3.870;2023-12-29T18:38:02;12.90;99.90
15916;DHT22;8057;47.830;-3.870;2023-12-29T18:42:27;12.90;99.90
15916;DHT22;8057;47.830;-3.870;2023-12-29T18:46:37;12.90;99.90
15916;DHT22;8057;47.830;-3.870;2023-12-29T18:50:47;12.90;99.90
15916;DHT22;8057;47.830;-3.870;2023-12-29T18:54:57;12.90;99.90
15916;DHT22;8057;47.830;-3.870;2023-12-29T18:59:06;12.90;99.90
15916;DHT22;8057;47.830;-3.870;2023-12-29T19:03:20;12.90;99.90
15916;DHT22;8057;47.830;-3.870;2023-12-29T19:07:29;12.80;99.90
15916;DHT22;8057;47.830;-3.870;2023-12-29T19:11:40;12.90;99.90
15916;DHT22;8057;47.830;-3.870;2023-12-29T19:15:49;12.70;99.90
15916;DHT22;8057;47.830;-3.870;2023-12-29T19:19:58;12.60;99.90
15916;DHT22;8057;47.830;-3.870;2023-12-29T19:24:08;12.50;99.90
15916;DHT22;8057;47.830;-3.870;2023-12-29T19:28:19;12.50;99.90
15916;DHT22;8057;47.830;-3.870;2023-12-29T19:32:29;12.70;99.90
15916;DHT22;8057;47.830;-3.870;2023-12-29T19:36:38;12.80;99.90
15916;DHT22;8057;47.830;-3.870;2023-12-29T19:40:51;12.80;99.90
15916;DHT22;8057;47.830;-3.870;2023-12-29T19:45:04;12.80;99.90
15916;DHT22;8057;47.830;-3.870;2023-12-29T19:49:23;12.90;99.90
15916;DHT22;8057;47.830;-3.870;2023-12-29T19:54:01;12.70;99.90
15916;DHT22;8057;47.830;-3.870;2023-12-29T19:58:27;12.70;99.90
15916;DHT22;8057;47.830;-3.870;2023-12-29T20:03:15;12.70;99.90
15916;DHT22;8057;47.830;-3.870;2023-12-29T20:07:27;12.70;99.90
15916;DHT22;8057;47.830;-3.870;2023-12-29T20:11:59;12.60;99.90
15916;DHT22;8057;47.830;-3.870;2023-12-29T20:24:55;12.50;99.90
15916;DHT22;8057;47.830;-3.870;2023-12-29T20:29:05;12.50;99.90
15916;DHT22;8057;47.830;-3.870;2023-12-29T20:33:15;12.50;99.90
15916;DHT22;8057;47.830;-3.870;2023-12-29T20:37:25;12.50;99.90
15916;DHT22;8057;47.830;-3.870;2023-12-29T20:41:37;12.60;99.90
15916;DHT22;8057;47.830;-3.870;2023-12-29T20:45:47;12.60;99.90
15916;DHT22;8057;47.830;-3.870;2023-12-29T20:50:04;12.60;99.90
15916;DHT22;8057;47.830;-3.870;2023-12-29T20:54:14;12.60;99.90
15916;DHT22;8057;47.830;-3.870;2023-12-29T20:58:25;12.50;99.90
15916;DHT22;8057;47.830;-3.870;2023-12-29T21:02:35;12.50;99.90
15916;DHT22;8057;47.830;-3.870;2023-12-29T21:06:46;12.30;99.90
15916;DHT22;8057;47.830;-3.870;2023-12-29T21:10:56;12.30;99.90
15916;DHT22;8057;47.830;-3.870;2023-12-29T21:15:10;12.30;99.90
15916;DHT22;8057;47.830;-3.870;2023-12-29T21:19:19;12.30;99.90
15916;DHT22;8057;47.830;-3.870;2023-12-29T21:23:29;12.40;99.90
15916;DHT22;8057;47.830;-3.870;2023-12-29T21:27:38;12.50;99.90
15916;DHT22;8057;47.830;-3.870;2023-12-29T21:31:49;12.50;99.90
15916;DHT22;8057;47.830;-3.870;2023-12-29T21:35:59;12.40;99.90
15916;DHT22;8057;47.830;-3.870;2023-12-29T21:40:19;12.40;99.90
15916;DHT22;8057;47.830;-3.870;2023-12-29T21:44:29;12.40;99.90
15916;DHT22;8057;47.830;-3.870;2023-12-29T21:48:40;12.40;99.90
15916;DHT22;8057;47.830;-3.870;2023-12-29T21:52:51;12.30;99.90
15916;DHT22;8057;47.830;-3.870;2023-12-29T21:57:01;12.30;99.90
15916;DHT22;8057;47.830;-3.870;2023-12-29T22:01:29;12.30;99.90
15916;DHT22;8057;47.830;-3.870;2023-12-29T22:05:41;12.30;99.90
15916;DHT22;8057;47.830;-3.870;2023-12-29T22:09:51;12.40;99.90
15916;DHT22;8057;47.830;-3.870;2023-12-29T22:14:00;12.30;99.90
15916;DHT22;8057;47.830;-3.870;2023-12-29T22:18:09;12.40;99.90
15916;DHT22;8057;47.830;-3.870;2023-12-29T22:22:20;12.40;99.90
15916;DHT22;8057;47.830;-3.870;2023-12-29T22:26:32;12.40;99.90
15916;DHT22;8057;47.830;-3.870;2023-12-29T22:30:42;12.30;99.90
15916;DHT22;8057;47.830;-3.870;2023-12-29T22:34:52;12.40;99.90
15916;DHT22;8057;47.830;-3.870;2023-12-29T22:39:04;12.40;99.90
15916;DHT22;8057;47.830;-3.870;2023-12-29T22:43:13;12.40;99.90
15916;DHT22;8057;47.830;-3.870;2023-12-29T22:47:24;12.40;99.90
15916;DHT22;8057;47.830;-3.870;2023-12-29T22:51:34;12.40;99.90
15916;DHT22;8057;47.830;-3.870;2023-12-29T22:55:45;12.40;99.90
15916;DHT22;8057;47.830;-3.870;2023-12-29T22:59:54;12.30;99.90
15916;DHT22;8057;47.830;-3.870;2023-12-29T23:04:03;12.30;99.90
15916;DHT22;8057;47.830;-3.870;2023-12-29T23:08:13;12.20;99.90
15916;DHT22;8057;47.830;-3.870;2023-12-29T23:12:23;12.20;99.90
15916;DHT22;8057;47.830;-3.870;2023-12-29T23:16:34;12.20;99.90
15916;DHT22;8057;47.830;-3.870;2023-12-29T23:20:44;12.20;99.90
15916;DHT22;8057;47.830;-3.870;2023-12-29T23:24:54;12.20;99.90
15916;DHT22;8057;47.830;-3.870;2023-12-29T23:29:05;12.20;99.90
15916;DHT22;8057;47.830;-3.870;2023-12-29T23:33:14;12.20;99.90
15916;DHT22;8057;47.830;-3.870;2023-12-29T23:37:24;12.30;99.90
15916;DHT22;8057;47.830;-3.870;2023-12-29T23:41:35;12.30;99.90
15916;DHT22;8057;47.830;-3.870;2023-12-29T23:45:46;12.30;99.90
15916;DHT22;8057;47.830;-3.870;2023-12-29T23:49:55;12.20;99.90
15916;DHT22;8057;47.830;-3.870;2023-12-29T23:54:05;12.20;99.90
15916;DHT22;8057;47.830;-3.870;2023-12-29T23:58:15;12.20;99.90
